Current Weather

Francis S Gabreski

Westhampton Beach, New York (KFOK)

Report from: Friday, February 23, 2024 3:53 PM EST
Current time: Friday, February 23, 2024 4:14 PM EST

Nearby weather – Weather history – Daily summaries
Weather forecast

Present weatherLight rain
Temperature5.6°C (42.1°F)
Wind chill3.6°C (38.4°F)
Dew point4.4°C (39.9°F)
Winds 5 kts (2.6 m/s, 5.8 mph) North-Northeast (20°)
Visibility7 mi. (11.3 km)
Clouds Few clouds 500 ft. (152 m)
Ceiling: Broken clouds 3,200 ft. (975 m)
Overcast 4,800 ft. (1,463 m)
Altimeter29.45 in.Hg (997 mB)
Precipitiation0.02 in. (1 mm)
Precip last 3 hours0.05 in. (1 mm)
Relative humidity92 %
Density altitude-463 ft. (-141 m)
Sea-level pressure99.7 kPa (997 mB, 29.45 in.Hg)
Remarks Automated weather observing station with precipitation discriminator
Pressure falling more quickly
Flight conditions Visual Meteorological Conditions
Raw dataKFOK 232053Z 02005KT 7SM -RA FEW005 BKN032 OVC048 06/04 A2945 RMK AO2 SLP972 P0002 60005 T00560044 58007
An error has occurred. This application may no longer respond until reloaded. Reload 🗙